Wausau, WI

8:05 PM CST on December 07, 2016 (GMT -0600)
Thomas Jefferson Elementary, Across the Street | | Change Station

Elev 1276 ft 44.98 °N, 89.64 °W | Updated 7 seconds ago

Light Snow
Light Snow
17.2 °F
Feels Like 8 °F
N
7.0
Wind Variable Wind from West

Today
High -- | Low -- °F
--% Chance of Precip.
Yesterday
High -- | Low -- °F
Precip. -- in
Pressure 30.03 in
Visibility 7.0 miles
Clouds Overcast 2400 ft
Windchill 8 °F
Dew Point 12 °F
Humidity 83%
Rainfall 0.00 in
Snow Depth Not available.
7:23 AM 4:17 PM
First Quarter, 58% visible
METAR KAUW 080154Z AUTO 26011G19KT 7SM -SN OVC024 M08/M11 A2995 RMK AO2 SLP168 P0000 T10781111
Pressure 30.03 in
Visibility 7.0 miles
Clouds Overcast 2400 ft
Windchill 8 °F
Dew Point 12 °F
Humidity 83%
Rainfall 0.00 in
Snow Depth Not available.
7:23 AM 4:17 PM
First Quarter, 58% visible
METAR KAUW 080154Z AUTO 26011G19KT 7SM -SN OVC024 M08/M11 A2995 RMK AO2 SLP168 P0000 T10781111

10-Day Weather Forecast

Almanac

Astronomy

Dec. 07, 2016 Rise Set
Actual Time
Civil Twilight
Nautical Twilight
Astronomical Twilight
Moon
Length of Visible Light
Length of Day
Tomorrow will be .
, % of the Moon is Illuminated

Today's Extremes

State Highs State Lows

Community

WunderPhotos

Upload Photos

1,956,259 photos uploaded!

WunderBlog® & News

Nearby

Air Quality

  Air Quality AQ Index Pollutant
Not available.

Snow Depth

Station Depth Elevation

Earthquake Activity

City Distance Mag. Time & Date
Minimum magnitude displayed is 2.5.

Coastal Water Temperatures

Place Temperature

Stations

Nearby Weather Stations

Station Location Temp. Windchill Dew Point Humidity Wind Precip. Elev Updated Type
                   

Watches & Warnings

There are currently no watches in effect.